sensor_id;sensor_type;location;lat;lon;timestamp;temperature;humidity
80367;DHT22;70058;42.660;23.366;2023-07-08T00:00:16;21.00;62.00
80367;DHT22;70058;42.660;23.366;2023-07-08T00:02:42;21.10;61.80
80367;DHT22;70058;42.660;23.366;2023-07-08T00:05:12;21.10;61.40
80367;DHT22;70058;42.660;23.366;2023-07-08T00:07:39;21.10;61.30
80367;DHT22;70058;42.660;23.366;2023-07-08T00:10:34;21.10;61.20
80367;DHT22;70058;42.660;23.366;2023-07-08T00:13:00;21.00;61.50
80367;DHT22;70058;42.660;23.366;2023-07-08T00:15:27;20.90;61.60
80367;DHT22;70058;42.660;23.366;2023-07-08T00:17:54;20.70;62.00
80367;DHT22;70058;42.660;23.366;2023-07-08T00:20:32;20.70;62.10
80367;DHT22;70058;42.660;23.366;2023-07-08T00:22:58;20.70;62.60
80367;DHT22;70058;42.660;23.366;2023-07-08T00:25:26;20.60;62.70
80367;DHT22;70058;42.660;23.366;2023-07-08T00:27:52;20.50;62.90
80367;DHT22;70058;42.660;23.366;2023-07-08T00:30:26;20.50;63.00
80367;DHT22;70058;42.660;23.366;2023-07-08T00:32:53;20.40;63.30
80367;DHT22;70058;42.660;23.366;2023-07-08T00:35:26;20.50;63.20
80367;DHT22;70058;42.660;23.366;2023-07-08T00:37:53;20.50;63.10
80367;DHT22;70058;42.660;23.366;2023-07-08T00:40:22;20.30;63.40
80367;DHT22;70058;42.660;23.366;2023-07-08T00:42:49;20.30;63.40
80367;DHT22;70058;42.660;23.366;2023-07-08T00:48:29;20.30;63.70
80367;DHT22;70058;42.660;23.366;2023-07-08T00:50:51;20.30;63.60
80367;DHT22;70058;42.660;23.366;2023-07-08T00:53:24;20.20;63.50
80367;DHT22;70058;42.660;23.366;2023-07-08T00:56:21;20.20;63.60
80367;DHT22;70058;42.660;23.366;2023-07-08T00:58:56;20.20;63.50
80367;DHT22;70058;42.660;23.366;2023-07-08T01:01:22;20.30;63.50
80367;DHT22;70058;42.660;23.366;2023-07-08T01:03:59;20.30;63.20
80367;DHT22;70058;42.660;23.366;2023-07-08T01:06:28;20.40;63.30
80367;DHT22;70058;42.660;23.366;2023-07-08T01:08:57;20.30;63.30
80367;DHT22;70058;42.660;23.366;2023-07-08T01:11:24;20.30;63.60
80367;DHT22;70058;42.660;23.366;2023-07-08T01:13:50;20.30;63.10
80367;DHT22;70058;42.660;23.366;2023-07-08T01:16:17;20.10;63.50
80367;DHT22;70058;42.660;23.366;2023-07-08T01:18:43;20.00;63.90
80367;DHT22;70058;42.660;23.366;2023-07-08T01:21:39;20.00;64.00
80367;DHT22;70058;42.660;23.366;2023-07-08T01:24:07;20.10;64.00
80367;DHT22;70058;42.660;23.366;2023-07-08T01:26:40;20.20;63.50
80367;DHT22;70058;42.660;23.366;2023-07-08T01:29:07;20.30;63.30
80367;DHT22;70058;42.660;23.366;2023-07-08T01:31:33;20.30;63.10
80367;DHT22;70058;42.660;23.366;2023-07-08T01:34:00;20.10;63.70
80367;DHT22;70058;42.660;23.366;2023-07-08T01:36:30;20.10;63.70
80367;DHT22;70058;42.660;23.366;2023-07-08T01:38:57;20.10;63.80
80367;DHT22;70058;42.660;23.366;2023-07-08T01:41:22;20.10;63.90
80367;DHT22;70058;42.660;23.366;2023-07-08T01:43:48;20.10;63.70
80367;DHT22;70058;42.660;23.366;2023-07-08T01:46:24;20.10;63.90
80367;DHT22;70058;42.660;23.366;2023-07-08T01:48:54;20.10;63.80
80367;DHT22;70058;42.660;23.366;2023-07-08T01:51:21;20.10;63.60
80367;DHT22;70058;42.660;23.366;2023-07-08T01:53:47;20.10;63.60
80367;DHT22;70058;42.660;23.366;2023-07-08T01:56:14;20.10;63.40
80367;DHT22;70058;42.660;23.366;2023-07-08T01:58:40;20.10;63.60
80367;DHT22;70058;42.660;23.366;2023-07-08T02:01:07;20.00;63.70
80367;DHT22;70058;42.660;23.366;2023-07-08T02:03:33;19.90;63.90
80367;DHT22;70058;42.660;23.366;2023-07-08T02:05:58;19.80;64.10
80367;DHT22;70058;42.660;23.366;2023-07-08T02:08:24;19.90;64.00
80367;DHT22;70058;42.660;23.366;2023-07-08T02:10:55;19.80;64.10
80367;DHT22;70058;42.660;23.366;2023-07-08T02:13:22;20.00;63.90
80367;DHT22;70058;42.660;23.366;2023-07-08T02:15:49;19.90;63.80
80367;DHT22;70058;42.660;23.366;2023-07-08T02:18:15;19.90;63.90
80367;DHT22;70058;42.660;23.366;2023-07-08T02:20:42;19.70;64.30
80367;DHT22;70058;42.660;23.366;2023-07-08T02:23:08;19.80;64.00
80367;DHT22;70058;42.660;23.366;2023-07-08T02:25:34;19.90;63.90
80367;DHT22;70058;42.660;23.366;2023-07-08T02:27:59;19.80;64.20
80367;DHT22;70058;42.660;23.366;2023-07-08T02:30:26;19.80;64.20
80367;DHT22;70058;42.660;23.366;2023-07-08T02:32:53;19.80;64.30
80367;DHT22;70058;42.660;23.366;2023-07-08T02:35:26;19.50;64.70
80367;DHT22;70058;42.660;23.366;2023-07-08T02:37:56;19.40;65.00
80367;DHT22;70058;42.660;23.366;2023-07-08T02:40:23;19.30;65.50
80367;DHT22;70058;42.660;23.366;2023-07-08T02:42:49;19.30;65.40
80367;DHT22;70058;42.660;23.366;2023-07-08T02:45:16;19.40;65.40
80367;DHT22;70058;42.660;23.366;2023-07-08T02:47:42;19.40;65.00
80367;DHT22;70058;42.660;23.366;2023-07-08T02:50:09;19.50;65.00
80367;DHT22;70058;42.660;23.366;2023-07-08T02:52:35;19.60;64.90
80367;DHT22;70058;42.660;23.366;2023-07-08T02:55:01;19.60;64.70
80367;DHT22;70058;42.660;23.366;2023-07-08T02:57:27;19.60;64.90
80367;DHT22;70058;42.660;23.366;2023-07-08T02:59:52;19.60;64.50
80367;DHT22;70058;42.660;23.366;2023-07-08T03:02:18;19.70;64.30
80367;DHT22;70058;42.660;23.366;2023-07-08T03:04:44;19.80;64.20
80367;DHT22;70058;42.660;23.366;2023-07-08T03:07:11;19.70;64.30
80367;DHT22;70058;42.660;23.366;2023-07-08T03:09:40;19.70;64.50
80367;DHT22;70058;42.660;23.366;2023-07-08T03:12:07;19.60;64.60
80367;DHT22;70058;42.660;23.366;2023-07-08T03:14:32;19.70;64.60
80367;DHT22;70058;42.660;23.366;2023-07-08T03:16:58;19.70;64.30
80367;DHT22;70058;42.660;23.366;2023-07-08T03:19:24;19.80;64.20
80367;DHT22;70058;42.660;23.366;2023-07-08T03:21:49;19.90;63.90
80367;DHT22;70058;42.660;23.366;2023-07-08T03:24:15;19.80;63.90
80367;DHT22;70058;42.660;23.366;2023-07-08T03:26:44;19.90;64.00
80367;DHT22;70058;42.660;23.366;2023-07-08T03:29:17;19.90;63.80
80367;DHT22;70058;42.660;23.366;2023-07-08T03:31:43;20.00;63.80
80367;DHT22;70058;42.660;23.366;2023-07-08T03:34:10;20.00;63.50
80367;DHT22;70058;42.660;23.366;2023-07-08T03:36:50;20.10;63.20
80367;DHT22;70058;42.660;23.366;2023-07-08T03:39:21;20.10;63.00
80367;DHT22;70058;42.660;23.366;2023-07-08T03:41:48;20.10;63.20
80367;DHT22;70058;42.660;23.366;2023-07-08T03:44:14;20.10;63.20
80367;DHT22;70058;42.660;23.366;2023-07-08T03:46:44;20.10;63.20
80367;DHT22;70058;42.660;23.366;2023-07-08T03:49:10;20.10;64.00
80367;DHT22;70058;42.660;23.366;2023-07-08T03:51:38;20.10;63.20
80367;DHT22;70058;42.660;23.366;2023-07-08T03:54:05;20.10;63.20
80367;DHT22;70058;42.660;23.366;2023-07-08T03:56:31;20.20;63.00
80367;DHT22;70058;42.660;23.366;2023-07-08T03:58:57;20.40;62.70
80367;DHT22;70058;42.660;23.366;2023-07-08T04:01:24;20.30;62.80
80367;DHT22;70058;42.660;23.366;2023-07-08T04:03:51;20.30;62.70
80367;DHT22;70058;42.660;23.366;2023-07-08T04:06:18;20.60;62.20
80367;DHT22;70058;42.660;23.366;2023-07-08T04:08:43;20.80;61.60
80367;DHT22;70058;42.660;23.366;2023-07-08T04:11:14;20.90;61.30
80367;DHT22;70058;42.660;23.366;2023-07-08T04:13:41;20.90;61.20
80367;DHT22;70058;42.660;23.366;2023-07-08T04:16:18;20.90;60.80
80367;DHT22;70058;42.660;23.366;2023-07-08T04:18:45;20.90;60.80
80367;DHT22;70058;42.660;23.366;2023-07-08T04:21:11;21.10;60.80
80367;DHT22;70058;42.660;23.366;2023-07-08T04:23:37;22.10;58.50
80367;DHT22;70058;42.660;23.366;2023-07-08T04:26:02;23.80;53.90
80367;DHT22;70058;42.660;23.366;2023-07-08T04:28:28;25.40;49.50
80367;DHT22;70058;42.660;23.366;2023-07-08T04:30:54;26.90;45.70
80367;DHT22;70058;42.660;23.366;2023-07-08T04:33:19;28.10;43.10
80367;DHT22;70058;42.660;23.366;2023-07-08T04:35:45;29.10;41.10
80367;DHT22;70058;42.660;23.366;2023-07-08T04:38:20;30.00;38.80
80367;DHT22;70058;42.660;23.366;2023-07-08T04:40:48;30.60;37.80
80367;DHT22;70058;42.660;23.366;2023-07-08T04:43:14;30.90;36.90
80367;DHT22;70058;42.660;23.366;2023-07-08T04:45:42;30.60;37.30
80367;DHT22;70058;42.660;23.366;2023-07-08T04:48:13;30.40;37.40
80367;DHT22;70058;42.660;23.366;2023-07-08T04:50:43;30.90;36.60
80367;DHT22;70058;42.660;23.366;2023-07-08T04:53:10;30.90;36.10
80367;DHT22;70058;42.660;23.366;2023-07-08T04:55:51;30.30;36.60
80367;DHT22;70058;42.660;23.366;2023-07-08T04:58:17;29.50;38.10
80367;DHT22;70058;42.660;23.366;2023-07-08T05:00:43;28.70;39.50
80367;DHT22;70058;42.660;23.366;2023-07-08T05:03:08;28.10;40.60
80367;DHT22;70058;42.660;23.366;2023-07-08T05:05:34;27.80;41.40
80367;DHT22;70058;42.660;23.366;2023-07-08T05:08:00;27.50;41.20
80367;DHT22;70058;42.660;23.366;2023-07-08T05:10:26;27.10;42.30
80367;DHT22;70058;42.660;23.366;2023-07-08T05:12:51;26.90;43.40
80367;DHT22;70058;42.660;23.366;2023-07-08T05:15:17;26.40;43.70
80367;DHT22;70058;42.660;23.366;2023-07-08T05:17:46;26.30;44.20
80367;DHT22;70058;42.660;23.366;2023-07-08T05:20:16;26.00;44.70
80367;DHT22;70058;42.660;23.366;2023-07-08T05:22:46;25.60;45.50
80367;DHT22;70058;42.660;23.366;2023-07-08T05:25:13;25.50;46.40
80367;DHT22;70058;42.660;23.366;2023-07-08T05:27:39;25.70;45.90
80367;DHT22;70058;42.660;23.366;2023-07-08T05:30:06;25.50;46.10
80367;DHT22;70058;42.660;23.366;2023-07-08T05:32:32;25.70;46.10
80367;DHT22;70058;42.660;23.366;2023-07-08T05:34:58;26.10;45.40
80367;DHT22;70058;42.660;23.366;2023-07-08T05:37:24;26.30;44.80
80367;DHT22;70058;42.660;23.366;2023-07-08T05:39:51;26.40;44.40
80367;DHT22;70058;42.660;23.366;2023-07-08T05:42:18;26.50;43.70
80367;DHT22;70058;42.660;23.366;2023-07-08T05:44:43;26.70;43.00
80367;DHT22;70058;42.660;23.366;2023-07-08T05:47:09;26.80;43.30
80367;DHT22;70058;42.660;23.366;2023-07-08T05:49:34;26.60;43.40
80367;DHT22;70058;42.660;23.366;2023-07-08T05:52:01;26.50;43.70
80367;DHT22;70058;42.660;23.366;2023-07-08T05:54:31;26.30;44.10
80367;DHT22;70058;42.660;23.366;2023-07-08T05:56:57;26.00;44.30
80367;DHT22;70058;42.660;23.366;2023-07-08T05:59:22;26.10;44.50
80367;DHT22;70058;42.660;23.366;2023-07-08T06:01:48;26.30;44.30
80367;DHT22;70058;42.660;23.366;2023-07-08T06:04:13;26.50;44.00
80367;DHT22;70058;42.660;23.366;2023-07-08T06:06:39;26.70;43.50
80367;DHT22;70058;42.660;23.366;2023-07-08T06:09:05;27.00;43.20
80367;DHT22;70058;42.660;23.366;2023-07-08T06:11:30;27.00;42.20
80367;DHT22;70058;42.660;23.366;2023-07-08T06:13:56;27.50;41.50
80367;DHT22;70058;42.660;23.366;2023-07-08T06:16:23;28.70;39.50
80367;DHT22;70058;42.660;23.366;2023-07-08T06:18:49;30.20;37.40
80367;DHT22;70058;42.660;23.366;2023-07-08T06:21:14;31.00;35.10
80367;DHT22;70058;42.660;23.366;2023-07-08T06:23:40;30.70;34.90
80367;DHT22;70058;42.660;23.366;2023-07-08T06:26:06;30.20;35.80
80367;DHT22;70058;42.660;23.366;2023-07-08T06:28:31;29.90;36.70
80367;DHT22;70058;42.660;23.366;2023-07-08T06:30:57;29.80;37.70
80367;DHT22;70058;42.660;23.366;2023-07-08T06:33:23;30.20;37.40
80367;DHT22;70058;42.660;23.366;2023-07-08T06:35:48;30.80;34.80
80367;DHT22;70058;42.660;23.366;2023-07-08T06:38:14;30.50;34.30
80367;DHT22;70058;42.660;23.366;2023-07-08T06:40:40;30.40;35.00
80367;DHT22;70058;42.660;23.366;2023-07-08T06:43:05;30.50;35.00
80367;DHT22;70058;42.660;23.366;2023-07-08T06:45:31;30.50;34.10
80367;DHT22;70058;42.660;23.366;2023-07-08T06:47:57;30.80;33.90
80367;DHT22;70058;42.660;23.366;2023-07-08T06:50:22;31.00;34.30
80367;DHT22;70058;42.660;23.366;2023-07-08T06:52:48;33.10;31.90
80367;DHT22;70058;42.660;23.366;2023-07-08T06:55:14;35.00;28.50
80367;DHT22;70058;42.660;23.366;2023-07-08T06:57:40;36.80;26.80
80367;DHT22;70058;42.660;23.366;2023-07-08T07:00:07;38.50;25.40
80367;DHT22;70058;42.660;23.366;2023-07-08T07:02:35;39.60;24.10
80367;DHT22;70058;42.660;23.366;2023-07-08T07:05:02;41.40;22.80
80367;DHT22;70058;42.660;23.366;2023-07-08T07:07:28;42.60;22.10
80367;DHT22;70058;42.660;23.366;2023-07-08T07:09:54;44.30;20.70
80367;DHT22;70058;42.660;23.366;2023-07-08T07:12:20;44.80;20.20
80367;DHT22;70058;42.660;23.366;2023-07-08T07:14:46;45.40;19.80
80367;DHT22;70058;42.660;23.366;2023-07-08T07:17:11;45.90;19.20
80367;DHT22;70058;42.660;23.366;2023-07-08T07:19:37;46.00;19.10
80367;DHT22;70058;42.660;23.366;2023-07-08T07:22:03;46.50;18.80
80367;DHT22;70058;42.660;23.366;2023-07-08T07:24:29;46.70;18.50
80367;DHT22;70058;42.660;23.366;2023-07-08T07:26:55;46.50;18.50
80367;DHT22;70058;42.660;23.366;2023-07-08T07:29:22;46.60;18.60
80367;DHT22;70058;42.660;23.366;2023-07-08T07:31:48;46.60;18.60
80367;DHT22;70058;42.660;23.366;2023-07-08T07:34:14;46.80;18.40
80367;DHT22;70058;42.660;23.366;2023-07-08T07:36:40;47.40;17.90
80367;DHT22;70058;42.660;23.366;2023-07-08T07:39:06;47.80;17.70
80367;DHT22;70058;42.660;23.366;2023-07-08T07:41:32;48.20;17.60
80367;DHT22;70058;42.660;23.366;2023-07-08T07:43:57;47.20;17.60
80367;DHT22;70058;42.660;23.366;2023-07-08T07:46:23;47.60;17.70
80367;DHT22;70058;42.660;23.366;2023-07-08T07:48:49;47.30;17.70
80367;DHT22;70058;42.660;23.366;2023-07-08T07:51:14;47.60;17.40
80367;DHT22;70058;42.660;23.366;2023-07-08T07:53:41;47.80;17.40
80367;DHT22;70058;42.660;23.366;2023-07-08T07:56:07;48.30;17.00
80367;DHT22;70058;42.660;23.366;2023-07-08T07:58:33;49.00;16.90
80367;DHT22;70058;42.660;23.366;2023-07-08T08:00:59;49.50;16.40
80367;DHT22;70058;42.660;23.366;2023-07-08T08:03:25;49.60;16.50
80367;DHT22;70058;42.660;23.366;2023-07-08T08:05:51;49.30;16.60
80367;DHT22;70058;42.660;23.366;2023-07-08T08:08:17;47.90;16.90
80367;DHT22;70058;42.660;23.366;2023-07-08T08:10:43;46.90;17.60
80367;DHT22;70058;42.660;23.366;2023-07-08T08:13:09;45.00;18.50
80367;DHT22;70058;42.660;23.366;2023-07-08T08:15:35;43.70;19.30
80367;DHT22;70058;42.660;23.366;2023-07-08T08:18:01;43.10;20.10
80367;DHT22;70058;42.660;23.366;2023-07-08T08:20:28;42.10;20.20
80367;DHT22;70058;42.660;23.366;2023-07-08T08:22:54;41.50;20.60
80367;DHT22;70058;42.660;23.366;2023-07-08T08:25:21;42.50;20.70
80367;DHT22;70058;42.660;23.366;2023-07-08T08:27:47;43.90;19.20
80367;DHT22;70058;42.660;23.366;2023-07-08T08:30:13;43.70;19.50
80367;DHT22;70058;42.660;23.366;2023-07-08T08:32:39;43.20;19.60
80367;DHT22;70058;42.660;23.366;2023-07-08T08:35:05;43.50;19.40
80367;DHT22;70058;42.660;23.366;2023-07-08T08:37:31;45.20;18.70
80367;DHT22;70058;42.660;23.366;2023-07-08T08:39:57;46.70;17.70
80367;DHT22;70058;42.660;23.366;2023-07-08T08:44:53;49.20;16.50
80367;DHT22;70058;42.660;23.366;2023-07-08T08:47:40;49.50;16.40
80367;DHT22;70058;42.660;23.366;2023-07-08T08:52:51;51.60;15.20
80367;DHT22;70058;42.660;23.366;2023-07-08T08:55:21;51.80;14.70
80367;DHT22;70058;42.660;23.366;2023-07-08T09:00:58;52.70;14.50
80367;DHT22;70058;42.660;23.366;2023-07-08T09:03:42;53.80;14.10
80367;DHT22;70058;42.660;23.366;2023-07-08T09:06:27;54.00;13.70
80367;DHT22;70058;42.660;23.366;2023-07-08T09:08:56;54.50;13.50
80367;DHT22;70058;42.660;23.366;2023-07-08T09:11:44;54.90;13.40
80367;DHT22;70058;42.660;23.366;2023-07-08T09:14:16;54.60;13.50
80367;DHT22;70058;42.660;23.366;2023-07-08T09:19:25;54.00;13.70
80367;DHT22;70058;42.660;23.366;2023-07-08T09:27:11;55.10;12.80
80367;DHT22;70058;42.660;23.366;2023-07-08T09:29:37;54.70;12.90
80367;DHT22;70058;42.660;23.366;2023-07-08T09:32:23;54.90;13.00
80367;DHT22;70058;42.660;23.366;2023-07-08T09:35:03;55.20;12.70
80367;DHT22;70058;42.660;23.366;2023-07-08T09:37:37;55.30;12.80
80367;DHT22;70058;42.660;23.366;2023-07-08T09:40:30;55.40;12.60
80367;DHT22;70058;42.660;23.366;2023-07-08T09:45:48;56.30;12.20
80367;DHT22;70058;42.660;23.366;2023-07-08T09:48:23;56.70;12.10
80367;DHT22;70058;42.660;23.366;2023-07-08T09:50:52;57.00;11.90
80367;DHT22;70058;42.660;23.366;2023-07-08T09:53:18;57.60;11.70
80367;DHT22;70058;42.660;23.366;2023-07-08T09:55:44;57.60;11.40
80367;DHT22;70058;42.660;23.366;2023-07-08T09:58:23;57.40;11.40
80367;DHT22;70058;42.660;23.366;2023-07-08T10:01:02;57.20;11.60
80367;DHT22;70058;42.660;23.366;2023-07-08T10:03:33;56.90;11.60
80367;DHT22;70058;42.660;23.366;2023-07-08T10:06:05;56.90;11.50
80367;DHT22;70058;42.660;23.366;2023-07-08T10:08:41;57.50;11.40
80367;DHT22;70058;42.660;23.366;2023-07-08T10:11:20;57.80;11.10
80367;DHT22;70058;42.660;23.366;2023-07-08T10:13:50;57.70;11.70
80367;DHT22;70058;42.660;23.366;2023-07-08T10:18:49;56.80;11.20
80367;DHT22;70058;42.660;23.366;2023-07-08T10:26:47;53.70;12.80
80367;DHT22;70058;42.660;23.366;2023-07-08T10:53:21;35.60;24.80
80367;DHT22;70058;42.660;23.366;2023-07-08T10:55:53;34.90;25.10
80367;DHT22;70058;42.660;23.366;2023-07-08T10:58:42;34.40;25.80
80367;DHT22;70058;42.660;23.366;2023-07-08T11:06:56;33.00;27.10
80367;DHT22;70058;42.660;23.366;2023-07-08T11:09:48;32.60;28.20
80367;DHT22;70058;42.660;23.366;2023-07-08T11:12:49;32.50;28.20
80367;DHT22;70058;42.660;23.366;2023-07-08T11:15:21;32.30;27.60
80367;DHT22;70058;42.660;23.366;2023-07-08T11:18:09;31.80;28.30
80367;DHT22;70058;42.660;23.366;2023-07-08T11:20:41;31.60;28.80
80367;DHT22;70058;42.660;23.366;2023-07-08T11:23:32;31.20;28.90
80367;DHT22;70058;42.660;23.366;2023-07-08T11:26:25;30.90;29.40
80367;DHT22;70058;42.660;23.366;2023-07-08T11:28:54;30.90;29.80
80367;DHT22;70058;42.660;23.366;2023-07-08T11:31:22;30.80;29.60
80367;DHT22;70058;42.660;23.366;2023-07-08T11:33:48;30.80;29.90
80367;DHT22;70058;42.660;23.366;2023-07-08T11:36:16;31.00;29.70
80367;DHT22;70058;42.660;23.366;2023-07-08T11:38:50;31.00;29.80
80367;DHT22;70058;42.660;23.366;2023-07-08T11:41:19;30.80;29.80
80367;DHT22;70058;42.660;23.366;2023-07-08T11:43:58;30.40;30.00
80367;DHT22;70058;42.660;23.366;2023-07-08T11:46:27;30.40;30.90
80367;DHT22;70058;42.660;23.366;2023-07-08T11:49:05;30.70;30.60
80367;DHT22;70058;42.660;23.366;2023-07-08T11:51:36;30.90;30.10
80367;DHT22;70058;42.660;23.366;2023-07-08T11:54:27;31.10;29.90
80367;DHT22;70058;42.660;23.366;2023-07-08T11:59:24;31.50;29.20
80367;DHT22;70058;42.660;23.366;2023-07-08T12:07:02;31.60;29.10
80367;DHT22;70058;42.660;23.366;2023-07-08T12:09:36;31.60;28.60
80367;DHT22;70058;42.660;23.366;2023-07-08T12:12:07;31.50;28.90
80367;DHT22;70058;42.660;23.366;2023-07-08T12:14:33;31.10;28.60
80367;DHT22;70058;42.660;23.366;2023-07-08T12:16:59;31.10;29.00
80367;DHT22;70058;42.660;23.366;2023-07-08T12:19:27;30.80;29.10
80367;DHT22;70058;42.660;23.366;2023-07-08T12:21:54;30.70;29.60
80367;DHT22;70058;42.660;23.366;2023-07-08T12:24:21;30.80;29.80
80367;DHT22;70058;42.660;23.366;2023-07-08T12:26:52;31.00;29.60
80367;DHT22;70058;42.660;23.366;2023-07-08T12:29:18;31.50;28.90
80367;DHT22;70058;42.660;23.366;2023-07-08T12:31:44;31.50;28.60
80367;DHT22;70058;42.660;23.366;2023-07-08T12:34:15;31.20;28.70
80367;DHT22;70058;42.660;23.366;2023-07-08T12:36:43;30.90;29.40
80367;DHT22;70058;42.660;23.366;2023-07-08T12:39:19;30.70;30.00
80367;DHT22;70058;42.660;23.366;2023-07-08T12:41:47;30.90;29.90
80367;DHT22;70058;42.660;23.366;2023-07-08T12:44:23;30.70;29.80
80367;DHT22;70058;42.660;23.366;2023-07-08T12:46:52;30.60;30.00
80367;DHT22;70058;42.660;23.366;2023-07-08T12:49:19;30.30;30.10
80367;DHT22;70058;42.660;23.366;2023-07-08T12:51:46;30.30;30.80
80367;DHT22;70058;42.660;23.366;2023-07-08T12:54:13;30.20;31.20
80367;DHT22;70058;42.660;23.366;2023-07-08T12:56:42;30.10;31.40
80367;DHT22;70058;42.660;23.366;2023-07-08T12:59:18;30.00;31.50
80367;DHT22;70058;42.660;23.366;2023-07-08T13:01:46;30.10;32.00
80367;DHT22;70058;42.660;23.366;2023-07-08T13:04:13;30.10;31.90
80367;DHT22;70058;42.660;23.366;2023-07-08T13:06:40;29.90;31.70
80367;DHT22;70058;42.660;23.366;2023-07-08T13:11:46;29.90;31.50
80367;DHT22;70058;42.660;23.366;2023-07-08T13:14:12;29.60;31.70
80367;DHT22;70058;42.660;23.366;2023-07-08T13:16:40;29.40;32.40
80367;DHT22;70058;42.660;23.366;2023-07-08T13:19:06;29.40;32.40
80367;DHT22;70058;42.660;23.366;2023-07-08T13:21:34;29.50;31.90
80367;DHT22;70058;42.660;23.366;2023-07-08T13:24:01;29.40;32.00
80367;DHT22;70058;42.660;23.366;2023-07-08T13:26:30;29.40;31.80
80367;DHT22;70058;42.660;23.366;2023-07-08T13:29:00;29.40;31.40
80367;DHT22;70058;42.660;23.366;2023-07-08T13:31:33;29.40;31.70
80367;DHT22;70058;42.660;23.366;2023-07-08T13:34:09;29.60;31.40
80367;DHT22;70058;42.660;23.366;2023-07-08T13:36:40;30.00;31.00
80367;DHT22;70058;42.660;23.366;2023-07-08T13:39:12;30.30;31.00
80367;DHT22;70058;42.660;23.366;2023-07-08T13:41:43;30.80;30.50
80367;DHT22;70058;42.660;23.366;2023-07-08T13:44:10;30.90;30.00
80367;DHT22;70058;42.660;23.366;2023-07-08T13:46:44;30.90;30.00
80367;DHT22;70058;42.660;23.366;2023-07-08T13:49:15;30.80;30.20
80367;DHT22;70058;42.660;23.366;2023-07-08T13:51:44;31.00;30.30
80367;DHT22;70058;42.660;23.366;2023-07-08T13:56:49;30.90;30.20
80367;DHT22;70058;42.660;23.366;2023-07-08T13:59:21;30.70;30.10
80367;DHT22;70058;42.660;23.366;2023-07-08T14:01:48;30.60;30.10
80367;DHT22;70058;42.660;23.366;2023-07-08T14:04:19;30.70;30.30
80367;DHT22;70058;42.660;23.366;2023-07-08T14:06:45;30.60;30.00
80367;DHT22;70058;42.660;23.366;2023-07-08T14:09:16;30.40;30.20
80367;DHT22;70058;42.660;23.366;2023-07-08T14:11:43;29.90;31.00
80367;DHT22;70058;42.660;23.366;2023-07-08T14:14:09;30.00;31.00
80367;DHT22;70058;42.660;23.366;2023-07-08T14:16:39;30.20;31.10
80367;DHT22;70058;42.660;23.366;2023-07-08T14:19:07;30.50;30.70
80367;DHT22;70058;42.660;23.366;2023-07-08T14:21:37;30.60;30.40
80367;DHT22;70058;42.660;23.366;2023-07-08T14:24:12;30.80;30.30
80367;DHT22;70058;42.660;23.366;2023-07-08T14:26:42;31.00;30.00
80367;DHT22;70058;42.660;23.366;2023-07-08T14:29:08;30.70;30.20
80367;DHT22;70058;42.660;23.366;2023-07-08T14:31:34;30.70;29.90
80367;DHT22;70058;42.660;23.366;2023-07-08T14:34:06;30.80;29.60
80367;DHT22;70058;42.660;23.366;2023-07-08T14:36:33;30.80;29.70
80367;DHT22;70058;42.660;23.366;2023-07-08T14:38:58;30.50;30.80
80367;DHT22;70058;42.660;23.366;2023-07-08T14:41:25;30.10;30.70
80367;DHT22;70058;42.660;23.366;2023-07-08T14:43:51;30.00;30.60
80367;DHT22;70058;42.660;23.366;2023-07-08T14:46:17;30.00;30.60
80367;DHT22;70058;42.660;23.366;2023-07-08T14:48:42;30.00;30.50
80367;DHT22;70058;42.660;23.366;2023-07-08T14:51:08;30.20;30.80
80367;DHT22;70058;42.660;23.366;2023-07-08T14:53:34;30.30;30.70
80367;DHT22;70058;42.660;23.366;2023-07-08T14:56:04;30.50;30.20
80367;DHT22;70058;42.660;23.366;2023-07-08T14:58:33;30.60;29.80
80367;DHT22;70058;42.660;23.366;2023-07-08T15:01:01;30.60;29.90
80367;DHT22;70058;42.660;23.366;2023-07-08T15:03:33;30.50;30.10
80367;DHT22;70058;42.660;23.366;2023-07-08T15:05:58;30.60;30.20
80367;DHT22;70058;42.660;23.366;2023-07-08T15:08:24;30.70;30.20
80367;DHT22;70058;42.660;23.366;2023-07-08T15:10:51;30.70;30.10
80367;DHT22;70058;42.660;23.366;2023-07-08T15:13:19;30.70;30.00
80367;DHT22;70058;42.660;23.366;2023-07-08T15:15:47;30.90;30.60
80367;DHT22;70058;42.660;23.366;2023-07-08T15:18:15;31.00;29.60
80367;DHT22;70058;42.660;23.366;2023-07-08T15:20:43;31.00;29.30
80367;DHT22;70058;42.660;23.366;2023-07-08T15:23:10;30.60;29.90
80367;DHT22;70058;42.660;23.366;2023-07-08T15:25:36;30.50;30.00
80367;DHT22;70058;42.660;23.366;2023-07-08T15:28:04;30.20;30.30
80367;DHT22;70058;42.660;23.366;2023-07-08T15:30:30;30.20;30.70
80367;DHT22;70058;42.660;23.366;2023-07-08T15:32:57;30.10;31.10
80367;DHT22;70058;42.660;23.366;2023-07-08T15:35:25;30.10;31.30
80367;DHT22;70058;42.660;23.366;2023-07-08T15:37:56;30.20;31.50
80367;DHT22;70058;42.660;23.366;2023-07-08T15:40:23;30.10;30.70
80367;DHT22;70058;42.660;23.366;2023-07-08T15:42:52;30.10;30.60
80367;DHT22;70058;42.660;23.366;2023-07-08T15:45:38;30.10;31.10
80367;DHT22;70058;42.660;23.366;2023-07-08T15:48:11;30.00;31.00
80367;DHT22;70058;42.660;23.366;2023-07-08T15:50:37;29.90;31.20
80367;DHT22;70058;42.660;23.366;2023-07-08T15:53:03;29.80;31.20
80367;DHT22;70058;42.660;23.366;2023-07-08T15:55:30;29.50;31.30
80367;DHT22;70058;42.660;23.366;2023-07-08T15:58:05;29.60;31.60
80367;DHT22;70058;42.660;23.366;2023-07-08T16:00:34;29.40;31.90
80367;DHT22;70058;42.660;23.366;2023-07-08T16:03:05;29.40;32.00
80367;DHT22;70058;42.660;23.366;2023-07-08T16:05:31;29.30;31.90
80367;DHT22;70058;42.660;23.366;2023-07-08T16:08:00;29.10;32.10
80367;DHT22;70058;42.660;23.366;2023-07-08T16:10:26;29.10;32.10
80367;DHT22;70058;42.660;23.366;2023-07-08T16:12:52;29.00;32.10
80367;DHT22;70058;42.660;23.366;2023-07-08T16:15:32;28.80;32.30
80367;DHT22;70058;42.660;23.366;2023-07-08T16:17:58;28.80;32.00
80367;DHT22;70058;42.660;23.366;2023-07-08T16:20:27;28.80;32.00
80367;DHT22;70058;42.660;23.366;2023-07-08T16:22:53;28.30;32.80
80367;DHT22;70058;42.660;23.366;2023-07-08T16:25:24;28.20;33.10
80367;DHT22;70058;42.660;23.366;2023-07-08T16:27:52;28.10;33.40
80367;DHT22;70058;42.660;23.366;2023-07-08T16:30:20;27.90;33.20
80367;DHT22;70058;42.660;23.366;2023-07-08T16:32:47;28.00;33.20
80367;DHT22;70058;42.660;23.366;2023-07-08T16:35:16;27.90;33.40
80367;DHT22;70058;42.660;23.366;2023-07-08T16:37:43;27.80;33.50